sensor_id;sensor_type;location;lat;lon;timestamp;P1;durP1;ratioP1;P2;durP2;ratioP2
74799;SDS011;63326;45.088;7.658;2022-10-17T00:02:11;24.27;;;13.10;;
74799;SDS011;63326;45.088;7.658;2022-10-17T00:04:38;32.35;;;14.18;;
74799;SDS011;63326;45.088;7.658;2022-10-17T00:07:05;26.15;;;12.50;;
74799;SDS011;63326;45.088;7.658;2022-10-17T00:09:31;30.10;;;13.70;;
74799;SDS011;63326;45.088;7.658;2022-10-17T00:11:58;26.60;;;14.20;;
74799;SDS011;63326;45.088;7.658;2022-10-17T00:14:24;23.67;;;12.90;;
74799;SDS011;63326;45.088;7.658;2022-10-17T00:16:51;25.30;;;12.35;;
74799;SDS011;63326;45.088;7.658;2022-10-17T00:19:17;28.77;;;13.85;;
74799;SDS011;63326;45.088;7.658;2022-10-17T00:21:44;28.60;;;13.20;;
74799;SDS011;63326;45.088;7.658;2022-10-17T00:24:10;26.05;;;12.95;;
74799;SDS011;63326;45.088;7.658;2022-10-17T00:26:37;29.50;;;13.38;;
74799;SDS011;63326;45.088;7.658;2022-10-17T00:29:03;25.10;;;12.07;;
74799;SDS011;63326;45.088;7.658;2022-10-17T00:31:30;29.23;;;13.98;;
74799;SDS011;63326;45.088;7.658;2022-10-17T00:33:57;27.42;;;15.05;;
74799;SDS011;63326;45.088;7.658;2022-10-17T00:36:24;30.98;;;14.77;;
74799;SDS011;63326;45.088;7.658;2022-10-17T00:38:53;30.05;;;14.45;;
74799;SDS011;63326;45.088;7.658;2022-10-17T00:41:22;28.08;;;14.77;;
74799;SDS011;63326;45.088;7.658;2022-10-17T00:46:58;29.40;;;14.32;;
74799;SDS011;63326;45.088;7.658;2022-10-17T00:49:28;32.05;;;16.02;;
74799;SDS011;63326;45.088;7.658;2022-10-17T00:52:18;28.17;;;15.88;;
74799;SDS011;63326;45.088;7.658;2022-10-17T00:54:46;31.88;;;14.85;;
74799;SDS011;63326;45.088;7.658;2022-10-17T00:57:14;26.70;;;14.25;;
74799;SDS011;63326;45.088;7.658;2022-10-17T00:59:42;27.05;;;14.25;;
74799;SDS011;63326;45.088;7.658;2022-10-17T01:02:13;27.00;;;14.32;;
74799;SDS011;63326;45.088;7.658;2022-10-17T01:04:42;30.58;;;14.07;;
74799;SDS011;63326;45.088;7.658;2022-10-17T01:07:11;32.28;;;15.93;;
74799;SDS011;63326;45.088;7.658;2022-10-17T01:09:38;27.30;;;14.52;;
74799;SDS011;63326;45.088;7.658;2022-10-17T01:26:07;31.00;;;16.65;;
74799;SDS011;63326;45.088;7.658;2022-10-17T01:31:21;26.25;;;14.27;;
74799;SDS011;63326;45.088;7.658;2022-10-17T01:39:13;28.15;;;13.95;;
74799;SDS011;63326;45.088;7.658;2022-10-17T01:46:42;32.22;;;15.77;;
74799;SDS011;63326;45.088;7.658;2022-10-17T01:49:10;33.45;;;14.18;;
74799;SDS011;63326;45.088;7.658;2022-10-17T01:51:40;27.90;;;13.73;;
74799;SDS011;63326;45.088;7.658;2022-10-17T01:54:10;33.45;;;14.82;;
74799;SDS011;63326;45.088;7.658;2022-10-17T01:56:39;31.33;;;15.75;;
74799;SDS011;63326;45.088;7.658;2022-10-17T01:59:11;28.08;;;15.70;;
74799;SDS011;63326;45.088;7.658;2022-10-17T02:01:42;33.28;;;15.40;;
74799;SDS011;63326;45.088;7.658;2022-10-17T02:04:10;27.98;;;13.38;;
74799;SDS011;63326;45.088;7.658;2022-10-17T02:06:37;26.48;;;13.98;;
74799;SDS011;63326;45.088;7.658;2022-10-17T02:09:22;30.48;;;14.10;;
74799;SDS011;63326;45.088;7.658;2022-10-17T02:12:01;29.52;;;14.27;;
74799;SDS011;63326;45.088;7.658;2022-10-17T02:20:31;26.75;;;15.10;;
74799;SDS011;63326;45.088;7.658;2022-10-17T02:25:48;28.55;;;13.77;;
74799;SDS011;63326;45.088;7.658;2022-10-17T02:28:25;27.80;;;14.50;;
74799;SDS011;63326;45.088;7.658;2022-10-17T02:30:57;25.92;;;15.18;;
74799;SDS011;63326;45.088;7.658;2022-10-17T02:36:14;26.08;;;12.63;;
74799;SDS011;63326;45.088;7.658;2022-10-17T02:38:43;28.10;;;14.38;;
74799;SDS011;63326;45.088;7.658;2022-10-17T02:41:13;34.17;;;16.45;;
74799;SDS011;63326;45.088;7.658;2022-10-17T02:43:41;27.77;;;13.13;;
74799;SDS011;63326;45.088;7.658;2022-10-17T02:46:11;28.70;;;13.95;;
74799;SDS011;63326;45.088;7.658;2022-10-17T02:49:34;31.88;;;14.15;;
74799;SDS011;63326;45.088;7.658;2022-10-17T02:51:41;29.67;;;17.92;;
74799;SDS011;63326;45.088;7.658;2022-10-17T02:56:52;29.40;;;14.43;;
74799;SDS011;63326;45.088;7.658;2022-10-17T02:59:21;28.95;;;14.55;;
74799;SDS011;63326;45.088;7.658;2022-10-17T03:01:49;34.35;;;16.17;;
74799;SDS011;63326;45.088;7.658;2022-10-17T03:04:17;26.15;;;13.40;;
74799;SDS011;63326;45.088;7.658;2022-10-17T03:06:45;27.88;;;14.65;;
74799;SDS011;63326;45.088;7.658;2022-10-17T03:09:12;28.55;;;13.57;;
74799;SDS011;63326;45.088;7.658;2022-10-17T03:11:40;25.13;;;13.23;;
74799;SDS011;63326;45.088;7.658;2022-10-17T03:14:07;25.73;;;12.65;;
74799;SDS011;63326;45.088;7.658;2022-10-17T03:16:34;25.90;;;14.10;;
74799;SDS011;63326;45.088;7.658;2022-10-17T03:19:02;31.35;;;14.05;;
74799;SDS011;63326;45.088;7.658;2022-10-17T03:21:30;27.02;;;13.73;;
74799;SDS011;63326;45.088;7.658;2022-10-17T03:23:57;25.80;;;12.90;;
74799;SDS011;63326;45.088;7.658;2022-10-17T03:26:23;28.05;;;14.43;;
74799;SDS011;63326;45.088;7.658;2022-10-17T03:28:50;27.20;;;13.73;;
74799;SDS011;63326;45.088;7.658;2022-10-17T03:31:21;29.67;;;14.82;;
74799;SDS011;63326;45.088;7.658;2022-10-17T03:33:49;29.40;;;14.38;;
74799;SDS011;63326;45.088;7.658;2022-10-17T03:36:16;28.77;;;14.23;;
74799;SDS011;63326;45.088;7.658;2022-10-17T03:38:45;29.25;;;14.23;;
74799;SDS011;63326;45.088;7.658;2022-10-17T03:41:12;32.08;;;16.42;;
74799;SDS011;63326;45.088;7.658;2022-10-17T03:43:39;25.63;;;13.48;;
74799;SDS011;63326;45.088;7.658;2022-10-17T03:46:06;29.48;;;13.65;;
74799;SDS011;63326;45.088;7.658;2022-10-17T03:48:34;26.08;;;13.02;;
74799;SDS011;63326;45.088;7.658;2022-10-17T03:51:05;30.63;;;14.85;;
74799;SDS011;63326;45.088;7.658;2022-10-17T03:53:38;29.67;;;14.25;;
74799;SDS011;63326;45.088;7.658;2022-10-17T03:56:09;31.38;;;13.63;;
74799;SDS011;63326;45.088;7.658;2022-10-17T03:58:36;29.40;;;14.98;;
74799;SDS011;63326;45.088;7.658;2022-10-17T04:01:04;26.90;;;13.57;;
74799;SDS011;63326;45.088;7.658;2022-10-17T04:03:31;29.48;;;15.00;;
74799;SDS011;63326;45.088;7.658;2022-10-17T04:05:59;28.30;;;13.90;;
74799;SDS011;63326;45.088;7.658;2022-10-17T04:08:27;30.27;;;14.38;;
74799;SDS011;63326;45.088;7.658;2022-10-17T04:11:12;28.52;;;13.75;;
74799;SDS011;63326;45.088;7.658;2022-10-17T04:13:41;25.75;;;14.13;;
74799;SDS011;63326;45.088;7.658;2022-10-17T04:16:15;28.42;;;14.23;;
74799;SDS011;63326;45.088;7.658;2022-10-17T04:18:56;27.55;;;12.50;;
74799;SDS011;63326;45.088;7.658;2022-10-17T04:21:26;28.10;;;13.35;;
74799;SDS011;63326;45.088;7.658;2022-10-17T04:23:57;25.05;;;11.60;;
74799;SDS011;63326;45.088;7.658;2022-10-17T04:26:56;26.50;;;12.43;;
74799;SDS011;63326;45.088;7.658;2022-10-17T04:29:26;27.02;;;13.82;;
74799;SDS011;63326;45.088;7.658;2022-10-17T04:32:02;24.25;;;12.55;;
74799;SDS011;63326;45.088;7.658;2022-10-17T04:34:38;23.88;;;12.93;;
74799;SDS011;63326;45.088;7.658;2022-10-17T04:37:05;28.73;;;13.40;;
74799;SDS011;63326;45.088;7.658;2022-10-17T04:39:32;27.17;;;13.95;;
74799;SDS011;63326;45.088;7.658;2022-10-17T04:41:59;26.63;;;13.30;;
74799;SDS011;63326;45.088;7.658;2022-10-17T04:44:25;23.38;;;11.88;;
74799;SDS011;63326;45.088;7.658;2022-10-17T04:46:56;25.15;;;12.63;;
74799;SDS011;63326;45.088;7.658;2022-10-17T04:49:24;32.47;;;13.98;;
74799;SDS011;63326;45.088;7.658;2022-10-17T04:51:53;26.95;;;12.40;;
74799;SDS011;63326;45.088;7.658;2022-10-17T04:54:23;29.90;;;13.25;;
74799;SDS011;63326;45.088;7.658;2022-10-17T04:56:56;29.65;;;14.60;;
74799;SDS011;63326;45.088;7.658;2022-10-17T04:59:24;25.77;;;12.85;;
74799;SDS011;63326;45.088;7.658;2022-10-17T05:02:03;23.17;;;13.45;;
74799;SDS011;63326;45.088;7.658;2022-10-17T05:04:31;20.80;;;11.38;;
74799;SDS011;63326;45.088;7.658;2022-10-17T05:06:58;25.77;;;13.98;;
74799;SDS011;63326;45.088;7.658;2022-10-17T05:09:48;28.13;;;13.75;;
74799;SDS011;63326;45.088;7.658;2022-10-17T05:12:16;30.63;;;14.77;;
74799;SDS011;63326;45.088;7.658;2022-10-17T05:14:44;25.77;;;12.90;;
74799;SDS011;63326;45.088;7.658;2022-10-17T05:17:12;30.25;;;12.98;;
74799;SDS011;63326;45.088;7.658;2022-10-17T05:19:38;24.85;;;14.02;;
74799;SDS011;63326;45.088;7.658;2022-10-17T05:22:07;29.63;;;15.38;;
74799;SDS011;63326;45.088;7.658;2022-10-17T05:24:33;24.17;;;12.75;;
74799;SDS011;63326;45.088;7.658;2022-10-17T05:27:00;27.10;;;13.63;;
74799;SDS011;63326;45.088;7.658;2022-10-17T05:29:27;24.58;;;12.10;;
74799;SDS011;63326;45.088;7.658;2022-10-17T05:32:02;26.23;;;13.65;;
74799;SDS011;63326;45.088;7.658;2022-10-17T05:34:29;27.42;;;13.18;;
74799;SDS011;63326;45.088;7.658;2022-10-17T05:36:56;24.70;;;11.82;;
74799;SDS011;63326;45.088;7.658;2022-10-17T05:41:51;22.05;;;10.23;;
74799;SDS011;63326;45.088;7.658;2022-10-17T05:44:18;22.83;;;12.02;;
74799;SDS011;63326;45.088;7.658;2022-10-17T05:46:50;21.95;;;10.30;;
74799;SDS011;63326;45.088;7.658;2022-10-17T05:49:17;25.73;;;11.18;;
74799;SDS011;63326;45.088;7.658;2022-10-17T05:51:59;24.02;;;11.25;;
74799;SDS011;63326;45.088;7.658;2022-10-17T05:54:29;25.77;;;12.40;;
74799;SDS011;63326;45.088;7.658;2022-10-17T05:56:55;19.80;;;9.73;;
74799;SDS011;63326;45.088;7.658;2022-10-17T05:59:26;19.55;;;10.70;;
74799;SDS011;63326;45.088;7.658;2022-10-17T06:02:05;23.42;;;11.68;;
74799;SDS011;63326;45.088;7.658;2022-10-17T06:04:33;24.08;;;13.07;;
74799;SDS011;63326;45.088;7.658;2022-10-17T06:07:00;27.60;;;11.27;;
74799;SDS011;63326;45.088;7.658;2022-10-17T06:09:28;25.98;;;13.40;;
74799;SDS011;63326;45.088;7.658;2022-10-17T06:11:55;25.35;;;11.63;;
74799;SDS011;63326;45.088;7.658;2022-10-17T06:14:22;22.00;;;11.35;;
74799;SDS011;63326;45.088;7.658;2022-10-17T06:16:52;24.05;;;12.98;;
74799;SDS011;63326;45.088;7.658;2022-10-17T06:19:18;25.65;;;11.88;;
74799;SDS011;63326;45.088;7.658;2022-10-17T06:21:45;25.05;;;12.52;;
74799;SDS011;63326;45.088;7.658;2022-10-17T06:24:16;27.58;;;11.75;;
74799;SDS011;63326;45.088;7.658;2022-10-17T06:26:43;27.15;;;13.18;;
74799;SDS011;63326;45.088;7.658;2022-10-17T06:29:12;26.10;;;11.75;;
74799;SDS011;63326;45.088;7.658;2022-10-17T06:31:44;29.70;;;14.57;;
74799;SDS011;63326;45.088;7.658;2022-10-17T06:34:11;26.85;;;12.40;;
74799;SDS011;63326;45.088;7.658;2022-10-17T06:36:38;31.55;;;14.50;;
74799;SDS011;63326;45.088;7.658;2022-10-17T06:39:06;26.80;;;13.32;;
74799;SDS011;63326;45.088;7.658;2022-10-17T06:41:41;28.45;;;12.20;;
74799;SDS011;63326;45.088;7.658;2022-10-17T06:44:10;28.35;;;14.05;;
74799;SDS011;63326;45.088;7.658;2022-10-17T06:47:15;27.08;;;12.73;;
74799;SDS011;63326;45.088;7.658;2022-10-17T06:49:46;26.38;;;15.02;;
74799;SDS011;63326;45.088;7.658;2022-10-17T06:52:30;24.45;;;12.80;;
74799;SDS011;63326;45.088;7.658;2022-10-17T06:55:16;23.80;;;13.20;;
74799;SDS011;63326;45.088;7.658;2022-10-17T06:58:12;26.45;;;12.73;;
74799;SDS011;63326;45.088;7.658;2022-10-17T07:00:50;26.05;;;13.68;;
74799;SDS011;63326;45.088;7.658;2022-10-17T07:03:17;25.92;;;13.18;;
74799;SDS011;63326;45.088;7.658;2022-10-17T07:05:50;24.63;;;13.48;;
74799;SDS011;63326;45.088;7.658;2022-10-17T07:08:17;25.58;;;14.07;;
74799;SDS011;63326;45.088;7.658;2022-10-17T07:10:44;31.67;;;14.63;;
74799;SDS011;63326;45.088;7.658;2022-10-17T07:13:10;30.73;;;14.30;;
74799;SDS011;63326;45.088;7.658;2022-10-17T07:15:37;33.65;;;15.52;;
74799;SDS011;63326;45.088;7.658;2022-10-17T07:18:04;32.97;;;14.15;;
74799;SDS011;63326;45.088;7.658;2022-10-17T07:20:31;29.58;;;15.50;;
74799;SDS011;63326;45.088;7.658;2022-10-17T07:22:57;29.80;;;15.13;;
74799;SDS011;63326;45.088;7.658;2022-10-17T07:25:24;28.45;;;14.05;;
74799;SDS011;63326;45.088;7.658;2022-10-17T07:27:55;31.92;;;15.88;;
74799;SDS011;63326;45.088;7.658;2022-10-17T07:30:22;27.98;;;14.18;;
74799;SDS011;63326;45.088;7.658;2022-10-17T07:33:02;29.33;;;14.80;;
74799;SDS011;63326;45.088;7.658;2022-10-17T07:35:30;30.98;;;15.25;;
74799;SDS011;63326;45.088;7.658;2022-10-17T07:37:56;27.08;;;14.73;;
74799;SDS011;63326;45.088;7.658;2022-10-17T07:40:26;25.67;;;13.40;;
74799;SDS011;63326;45.088;7.658;2022-10-17T07:42:53;25.25;;;14.15;;
74799;SDS011;63326;45.088;7.658;2022-10-17T07:45:22;28.60;;;13.75;;
74799;SDS011;63326;45.088;7.658;2022-10-17T07:47:50;27.20;;;14.23;;
74799;SDS011;63326;45.088;7.658;2022-10-17T07:50:16;26.10;;;12.75;;
74799;SDS011;63326;45.088;7.658;2022-10-17T07:52:43;24.63;;;12.07;;
74799;SDS011;63326;45.088;7.658;2022-10-17T07:55:10;30.40;;;13.45;;
74799;SDS011;63326;45.088;7.658;2022-10-17T07:57:36;32.95;;;15.25;;
74799;SDS011;63326;45.088;7.658;2022-10-17T08:00:03;26.25;;;13.77;;
74799;SDS011;63326;45.088;7.658;2022-10-17T08:02:37;19.92;;;8.52;;
74799;SDS011;63326;45.088;7.658;2022-10-17T08:05:04;17.25;;;8.85;;
74799;SDS011;63326;45.088;7.658;2022-10-17T08:07:31;17.95;;;9.25;;
74799;SDS011;63326;45.088;7.658;2022-10-17T08:09:58;17.88;;;9.38;;
74799;SDS011;63326;45.088;7.658;2022-10-17T08:12:24;21.35;;;9.45;;
74799;SDS011;63326;45.088;7.658;2022-10-17T08:14:51;17.67;;;9.13;;
74799;SDS011;63326;45.088;7.658;2022-10-17T08:17:17;16.70;;;9.43;;
74799;SDS011;63326;45.088;7.658;2022-10-17T08:19:44;22.60;;;10.48;;
74799;SDS011;63326;45.088;7.658;2022-10-17T08:22:11;21.67;;;11.75;;
74799;SDS011;63326;45.088;7.658;2022-10-17T08:24:37;21.33;;;11.27;;
74799;SDS011;63326;45.088;7.658;2022-10-17T08:27:04;23.27;;;12.20;;
74799;SDS011;63326;45.088;7.658;2022-10-17T08:29:38;25.00;;;13.45;;
74799;SDS011;63326;45.088;7.658;2022-10-17T08:32:05;24.98;;;11.20;;
74799;SDS011;63326;45.088;7.658;2022-10-17T08:34:35;21.00;;;11.63;;
74799;SDS011;63326;45.088;7.658;2022-10-17T08:37:01;23.20;;;12.52;;
74799;SDS011;63326;45.088;7.658;2022-10-17T08:39:29;26.33;;;12.35;;
74799;SDS011;63326;45.088;7.658;2022-10-17T08:45:00;26.40;;;12.63;;
74799;SDS011;63326;45.088;7.658;2022-10-17T08:47:46;23.60;;;13.05;;
74799;SDS011;63326;45.088;7.658;2022-10-17T08:50:17;24.92;;;12.82;;
74799;SDS011;63326;45.088;7.658;2022-10-17T08:52:51;29.95;;;13.90;;
74799;SDS011;63326;45.088;7.658;2022-10-17T08:58:11;26.13;;;13.40;;
74799;SDS011;63326;45.088;7.658;2022-10-17T09:03:37;22.55;;;12.20;;
74799;SDS011;63326;45.088;7.658;2022-10-17T09:06:20;28.13;;;14.05;;
74799;SDS011;63326;45.088;7.658;2022-10-17T09:11:48;26.65;;;12.85;;
74799;SDS011;63326;45.088;7.658;2022-10-17T09:20:25;30.50;;;12.82;;
74799;SDS011;63326;45.088;7.658;2022-10-17T09:25:27;21.50;;;11.45;;
74799;SDS011;63326;45.088;7.658;2022-10-17T09:28:09;23.90;;;12.32;;
74799;SDS011;63326;45.088;7.658;2022-10-17T09:30:41;23.40;;;12.43;;
74799;SDS011;63326;45.088;7.658;2022-10-17T09:36:30;25.10;;;12.18;;
74799;SDS011;63326;45.088;7.658;2022-10-17T09:39:04;20.60;;;10.88;;
74799;SDS011;63326;45.088;7.658;2022-10-17T09:44:24;27.08;;;13.10;;
74799;SDS011;63326;45.088;7.658;2022-10-17T09:49:38;28.27;;;14.20;;
74799;SDS011;63326;45.088;7.658;2022-10-17T09:52:12;25.40;;;13.30;;
74799;SDS011;63326;45.088;7.658;2022-10-17T09:54:53;30.23;;;14.02;;
74799;SDS011;63326;45.088;7.658;2022-10-17T09:57:23;24.83;;;11.70;;
74799;SDS011;63326;45.088;7.658;2022-10-17T10:02:22;30.83;;;14.90;;
74799;SDS011;63326;45.088;7.658;2022-10-17T10:07:37;33.25;;;16.10;;
74799;SDS011;63326;45.088;7.658;2022-10-17T10:10:21;29.58;;;13.93;;
74799;SDS011;63326;45.088;7.658;2022-10-17T10:13:06;28.67;;;13.63;;
74799;SDS011;63326;45.088;7.658;2022-10-17T10:15:46;29.50;;;15.10;;
74799;SDS011;63326;45.088;7.658;2022-10-17T10:23:30;31.52;;;15.73;;
74799;SDS011;63326;45.088;7.658;2022-10-17T10:25:57;29.75;;;16.33;;
74799;SDS011;63326;45.088;7.658;2022-10-17T10:30:53;26.65;;;14.65;;
74799;SDS011;63326;45.088;7.658;2022-10-17T10:33:21;33.70;;;15.43;;
74799;SDS011;63326;45.088;7.658;2022-10-17T10:35:53;27.70;;;14.40;;
74799;SDS011;63326;45.088;7.658;2022-10-17T10:38:22;33.03;;;14.88;;
74799;SDS011;63326;45.088;7.658;2022-10-17T10:40:50;29.35;;;14.18;;
74799;SDS011;63326;45.088;7.658;2022-10-17T10:45:59;27.38;;;15.05;;
74799;SDS011;63326;45.088;7.658;2022-10-17T10:48:33;29.98;;;17.23;;
74799;SDS011;63326;45.088;7.658;2022-10-17T10:53:55;29.55;;;16.02;;
74799;SDS011;63326;45.088;7.658;2022-10-17T10:56:45;25.00;;;12.98;;
74799;SDS011;63326;45.088;7.658;2022-10-17T11:07:12;29.27;;;13.57;;
74799;SDS011;63326;45.088;7.658;2022-10-17T11:12:12;25.98;;;12.15;;
74799;SDS011;63326;45.088;7.658;2022-10-17T11:14:46;22.90;;;10.88;;
74799;SDS011;63326;45.088;7.658;2022-10-17T11:19:55;26.85;;;12.73;;
74799;SDS011;63326;45.088;7.658;2022-10-17T11:22:30;28.25;;;13.48;;
74799;SDS011;63326;45.088;7.658;2022-10-17T11:25:07;24.67;;;11.93;;
74799;SDS011;63326;45.088;7.658;2022-10-17T11:27:45;30.48;;;14.95;;
74799;SDS011;63326;45.088;7.658;2022-10-17T11:30:12;28.17;;;12.75;;
74799;SDS011;63326;45.088;7.658;2022-10-17T11:37:49;26.50;;;13.38;;
74799;SDS011;63326;45.088;7.658;2022-10-17T11:40:33;23.88;;;12.98;;
74799;SDS011;63326;45.088;7.658;2022-10-17T11:43:02;29.13;;;14.27;;
74799;SDS011;63326;45.088;7.658;2022-10-17T11:45:38;32.65;;;16.75;;
74799;SDS011;63326;45.088;7.658;2022-10-17T11:48:17;33.42;;;15.20;;
74799;SDS011;63326;45.088;7.658;2022-10-17T11:50:50;30.35;;;14.90;;
74799;SDS011;63326;45.088;7.658;2022-10-17T11:54:03;31.85;;;15.40;;
74799;SDS011;63326;45.088;7.658;2022-10-17T11:56:40;28.60;;;13.90;;
74799;SDS011;63326;45.088;7.658;2022-10-17T12:02:00;31.73;;;15.68;;
74799;SDS011;63326;45.088;7.658;2022-10-17T12:07:24;32.10;;;15.45;;
74799;SDS011;63326;45.088;7.658;2022-10-17T12:12:33;29.58;;;15.07;;
74799;SDS011;63326;45.088;7.658;2022-10-17T12:17:53;35.38;;;15.93;;
74799;SDS011;63326;45.088;7.658;2022-10-17T12:22:47;33.88;;;16.08;;
74799;SDS011;63326;45.088;7.658;2022-10-17T12:25:18;35.63;;;16.85;;
74799;SDS011;63326;45.088;7.658;2022-10-17T12:27:47;29.90;;;14.35;;
74799;SDS011;63326;45.088;7.658;2022-10-17T12:30:19;27.02;;;15.85;;
74799;SDS011;63326;45.088;7.658;2022-10-17T12:35:32;29.55;;;13.93;;
74799;SDS011;63326;45.088;7.658;2022-10-17T12:59:24;34.88;;;16.35;;
74799;SDS011;63326;45.088;7.658;2022-10-17T13:01:55;29.98;;;14.93;;
74799;SDS011;63326;45.088;7.658;2022-10-17T13:04:24;29.55;;;15.05;;
74799;SDS011;63326;45.088;7.658;2022-10-17T13:06:52;31.08;;;14.95;;
74799;SDS011;63326;45.088;7.658;2022-10-17T13:11:46;35.58;;;16.33;;
74799;SDS011;63326;45.088;7.658;2022-10-17T13:14:15;31.45;;;15.07;;
74799;SDS011;63326;45.088;7.658;2022-10-17T13:16:55;33.67;;;16.75;;
74799;SDS011;63326;45.088;7.658;2022-10-17T13:19:30;36.25;;;16.45;;
74799;SDS011;63326;45.088;7.658;2022-10-17T13:22:14;35.25;;;17.25;;
74799;SDS011;63326;45.088;7.658;2022-10-17T13:25:03;36.30;;;17.30;;
74799;SDS011;63326;45.088;7.658;2022-10-17T13:27:33;34.15;;;17.17;;
74799;SDS011;63326;45.088;7.658;2022-10-17T14:24:35;29.90;;;14.52;;
74799;SDS011;63326;45.088;7.658;2022-10-17T14:29:18;32.53;;;15.60;;
74799;SDS011;63326;45.088;7.658;2022-10-17T14:31:47;37.38;;;15.57;;
74799;SDS011;63326;45.088;7.658;2022-10-17T14:34:19;33.30;;;15.90;;
74799;SDS011;63326;45.088;7.658;2022-10-17T14:36:50;33.40;;;16.02;;
74799;SDS011;63326;45.088;7.658;2022-10-17T14:39:18;34.83;;;15.52;;
74799;SDS011;63326;45.088;7.658;2022-10-17T14:41:47;33.00;;;15.73;;
74799;SDS011;63326;45.088;7.658;2022-10-17T14:44:22;30.65;;;15.63;;
74799;SDS011;63326;45.088;7.658;2022-10-17T14:46:55;31.02;;;15.52;;
74799;SDS011;63326;45.088;7.658;2022-10-17T14:49:26;30.05;;;16.45;;
74799;SDS011;63326;45.088;7.658;2022-10-17T14:54:44;36.22;;;14.60;;
74799;SDS011;63326;45.088;7.658;2022-10-17T14:57:17;30.52;;;15.07;;
74799;SDS011;63326;45.088;7.658;2022-10-17T14:59:59;34.67;;;16.08;;
74799;SDS011;63326;45.088;7.658;2022-10-17T15:02:27;35.20;;;19.08;;
74799;SDS011;63326;45.088;7.658;2022-10-17T15:04:55;45.28;;;21.00;;
74799;SDS011;63326;45.088;7.658;2022-10-17T15:07:22;37.05;;;18.25;;
74799;SDS011;63326;45.088;7.658;2022-10-17T15:09:50;42.85;;;21.00;;
74799;SDS011;63326;45.088;7.658;2022-10-17T15:12:19;45.38;;;21.90;;
74799;SDS011;63326;45.088;7.658;2022-10-17T15:14:47;36.40;;;19.60;;
74799;SDS011;63326;45.088;7.658;2022-10-17T15:17:23;41.83;;;22.00;;
74799;SDS011;63326;45.088;7.658;2022-10-17T15:19:52;44.13;;;21.17;;
74799;SDS011;63326;45.088;7.658;2022-10-17T15:22:19;41.60;;;21.10;;
74799;SDS011;63326;45.088;7.658;2022-10-17T15:24:45;38.80;;;20.77;;
74799;SDS011;63326;45.088;7.658;2022-10-17T15:27:13;38.10;;;21.83;;
74799;SDS011;63326;45.088;7.658;2022-10-17T15:29:40;37.97;;;20.73;;
74799;SDS011;63326;45.088;7.658;2022-10-17T15:32:07;34.60;;;19.35;;
74799;SDS011;63326;45.088;7.658;2022-10-17T15:34:33;33.63;;;16.58;;
74799;SDS011;63326;45.088;7.658;2022-10-17T15:37:00;31.85;;;17.77;;
74799;SDS011;63326;45.088;7.658;2022-10-17T15:39:27;32.53;;;19.60;;
74799;SDS011;63326;45.088;7.658;2022-10-17T15:41:53;34.92;;;18.67;;
74799;SDS011;63326;45.088;7.658;2022-10-17T15:44:20;33.90;;;18.15;;
74799;SDS011;63326;45.088;7.658;2022-10-17T15:46:46;32.03;;;17.85;;
74799;SDS011;63326;45.088;7.658;2022-10-17T15:49:13;42.88;;;19.08;;
74799;SDS011;63326;45.088;7.658;2022-10-17T15:51:40;38.80;;;18.90;;
74799;SDS011;63326;45.088;7.658;2022-10-17T15:54:07;37.47;;;18.35;;
74799;SDS011;63326;45.088;7.658;2022-10-17T15:56:37;37.28;;;19.35;;
74799;SDS011;63326;45.088;7.658;2022-10-17T15:59:15;38.55;;;19.15;;
74799;SDS011;63326;45.088;7.658;2022-10-17T16:01:44;38.42;;;19.50;;
74799;SDS011;63326;45.088;7.658;2022-10-17T16:04:11;37.35;;;18.45;;
74799;SDS011;63326;45.088;7.658;2022-10-17T16:06:42;37.28;;;19.75;;
74799;SDS011;63326;45.088;7.658;2022-10-17T16:09:09;38.95;;;19.73;;
74799;SDS011;63326;45.088;7.658;2022-10-17T16:14:10;38.25;;;20.10;;
74799;SDS011;63326;45.088;7.658;2022-10-17T16:16:40;42.33;;;20.00;;
74799;SDS011;63326;45.088;7.658;2022-10-17T16:19:07;39.42;;;20.90;;
74799;SDS011;63326;45.088;7.658;2022-10-17T16:21:34;45.70;;;20.83;;
74799;SDS011;63326;45.088;7.658;2022-10-17T16:24:03;41.47;;;18.67;;
74799;SDS011;63326;45.088;7.658;2022-10-17T16:26:30;38.40;;;18.30;;
74799;SDS011;63326;45.088;7.658;2022-10-17T16:28:57;37.92;;;19.20;;
74799;SDS011;63326;45.088;7.658;2022-10-17T16:31:29;37.92;;;18.50;;
74799;SDS011;63326;45.088;7.658;2022-10-17T16:33:57;39.05;;;19.45;;
74799;SDS011;63326;45.088;7.658;2022-10-17T16:36:24;37.97;;;20.48;;
74799;SDS011;63326;45.088;7.658;2022-10-17T16:38:51;35.15;;;17.45;;
74799;SDS011;63326;45.088;7.658;2022-10-17T16:41:20;34.63;;;18.00;;
74799;SDS011;63326;45.088;7.658;2022-10-17T16:43:51;38.75;;;18.73;;
74799;SDS011;63326;45.088;7.658;2022-10-17T16:46:18;36.83;;;18.48;;
74799;SDS011;63326;45.088;7.658;2022-10-17T16:48:45;37.15;;;17.95;;
74799;SDS011;63326;45.088;7.658;2022-10-17T16:51:12;33.78;;;16.50;;
74799;SDS011;63326;45.088;7.658;2022-10-17T16:53:39;33.42;;;17.13;;
74799;SDS011;63326;45.088;7.658;2022-10-17T16:56:13;35.83;;;16.58;;
74799;SDS011;63326;45.088;7.658;2022-10-17T16:58:41;36.10;;;19.33;;
74799;SDS011;63326;45.088;7.658;2022-10-17T17:01:09;37.13;;;17.80;;
74799;SDS011;63326;45.088;7.658;2022-10-17T17:03:41;44.83;;;18.55;;
74799;SDS011;63326;45.088;7.658;2022-10-17T17:06:10;43.60;;;18.55;;
74799;SDS011;63326;45.088;7.658;2022-10-17T17:08:38;39.72;;;18.67;;
74799;SDS011;63326;45.088;7.658;2022-10-17T17:11:05;45.25;;;18.85;;
74799;SDS011;63326;45.088;7.658;2022-10-17T17:13:32;43.30;;;18.35;;
74799;SDS011;63326;45.088;7.658;2022-10-17T17:18:42;40.33;;;17.45;;
74799;SDS011;63326;45.088;7.658;2022-10-17T17:21:11;39.67;;;20.33;;
74799;SDS011;63326;45.088;7.658;2022-10-17T17:23:39;38.35;;;17.45;;
74799;SDS011;63326;45.088;7.658;2022-10-17T17:28:38;43.15;;;18.17;;
74799;SDS011;63326;45.088;7.658;2022-10-17T17:31:06;44.78;;;18.67;;
74799;SDS011;63326;45.088;7.658;2022-10-17T17:33:35;46.42;;;19.20;;
74799;SDS011;63326;45.088;7.658;2022-10-17T17:36:03;41.72;;;19.90;;
74799;SDS011;63326;45.088;7.658;2022-10-17T17:38:31;44.33;;;19.48;;
74799;SDS011;63326;45.088;7.658;2022-10-17T17:40:59;43.72;;;21.05;;
74799;SDS011;63326;45.088;7.658;2022-10-17T17:43:26;42.08;;;21.33;;
74799;SDS011;63326;45.088;7.658;2022-10-17T17:45:52;42.80;;;19.92;;
74799;SDS011;63326;45.088;7.658;2022-10-17T17:48:19;41.28;;;20.15;;
74799;SDS011;63326;45.088;7.658;2022-10-17T17:50:46;42.55;;;20.65;;
74799;SDS011;63326;45.088;7.658;2022-10-17T17:53:13;41.05;;;19.45;;
74799;SDS011;63326;45.088;7.658;2022-10-17T17:55:40;43.25;;;20.25;;
74799;SDS011;63326;45.088;7.658;2022-10-17T17:58:07;41.78;;;19.02;;
74799;SDS011;63326;45.088;7.658;2022-10-17T18:00:34;38.05;;;17.88;;
74799;SDS011;63326;45.088;7.658;2022-10-17T18:03:01;38.30;;;19.25;;
74799;SDS011;63326;45.088;7.658;2022-10-17T18:05:27;42.95;;;21.42;;
74799;SDS011;63326;45.088;7.658;2022-10-17T18:07:54;46.15;;;21.33;;
74799;SDS011;63326;45.088;7.658;2022-10-17T18:10:21;41.17;;;20.88;;
74799;SDS011;63326;45.088;7.658;2022-10-17T18:12:47;38.22;;;20.80;;
74799;SDS011;63326;45.088;7.658;2022-10-17T18:15:14;41.42;;;21.27;;
74799;SDS011;63326;45.088;7.658;2022-10-17T18:17:41;45.28;;;23.13;;
74799;SDS011;63326;45.088;7.658;2022-10-17T18:20:08;40.00;;;19.38;;